Time;durP1;ratioP1;P1;durP2;ratioP2;P2;SDS_P1;SDS_P2;PMS_P1;PMS_P2;Temp;Humidity;BMP_temperature;BMP_pressure;BME280_temperature;BME280_humidity;BME280_pressure;Samples;Min_cycle;Max_cycle;Signal;HPM_P1;HPM_P2
2023/10/24 00:01:15;;;;;;;15.43;7.15;;;;;;;;;;5096203;27;20378;-59
2023/10/24 00:03:41;;;;;;;18.35;7.63;;;;;;;;;;5113403;27;20031;-59
2023/10/24 00:06:08;;;;;;;15.43;7.60;;;;;;;;;;5113857;27;20024;-58
2023/10/24 00:08:34;;;;;;;19.50;8.02;;;;;;;;;;5112991;27;20406;-58
2023/10/24 00:11:05;;;;;;;14.10;7.35;;;;;;;;;;5108221;27;20062;-59
2023/10/24 00:13:31;;;;;;;21.10;8.02;;;;;;;;;;5107187;27;20035;-58
2023/10/24 00:15:58;;;;;;;22.08;8.63;;;;;;;;;;5109594;27;20024;-58
2023/10/24 00:18:26;;;;;;;25.30;8.93;;;;;;;;;;5105235;27;20446;-59
2023/10/24 00:20:52;;;;;;;26.45;11.18;;;;;;;;;;5105931;27;20032;-59
2023/10/24 00:23:19;;;;;;;31.30;13.07;;;;;;;;;;5106378;27;20411;-59
2023/10/24 00:25:45;;;;;;;28.58;13.05;;;;;;;;;;5110417;27;20040;-58
2023/10/24 00:28:12;;;;;;;40.22;16.25;;;;;;;;;;5114885;27;20051;-59
2023/10/24 00:30:39;;;;;;;46.92;16.67;;;;;;;;;;5082089;27;20031;-58
2023/10/24 00:33:05;;;;;;;44.28;16.92;;;;;;;;;;5095403;27;20038;-58
2023/10/24 00:35:34;;;;;;;32.35;13.68;;;;;;;;;;5098101;27;20046;-58
2023/10/24 00:38:01;;;;;;;22.80;10.23;;;;;;;;;;5109730;27;20054;-58
2023/10/24 00:40:27;;;;;;;14.77;6.38;;;;;;;;;;5112452;27;20482;-59
2023/10/24 00:42:53;;;;;;;14.93;6.35;;;;;;;;;;5111603;27;20422;-59
2023/10/24 00:45:19;;;;;;;10.60;6.38;;;;;;;;;;5094158;27;20047;-58
2023/10/24 00:47:45;;;;;;;9.93;5.45;;;;;;;;;;5055271;28;20036;-58
2023/10/24 00:50:13;;;;;;;10.40;5.22;;;;;;;;;;5111369;27;20032;-58
2023/10/24 00:52:43;;;;;;;12.05;5.25;;;;;;;;;;5098811;27;20039;-59
2023/10/24 00:55:11;;;;;;;10.63;4.82;;;;;;;;;;5094007;27;20043;-59
2023/10/24 00:57:38;;;;;;;13.73;5.32;;;;;;;;;;5112367;27;20045;-59
2023/10/24 01:00:06;;;;;;;9.43;5.47;;;;;;;;;;5111312;27;20059;-59
2023/10/24 01:02:33;;;;;;;9.63;4.88;;;;;;;;;;5112890;27;20023;-59
2023/10/24 01:05:00;;;;;;;14.88;7.32;;;;;;;;;;5117198;27;20024;-59
2023/10/24 01:07:26;;;;;;;15.40;7.32;;;;;;;;;;5111704;27;20035;-59
2023/10/24 01:09:52;;;;;;;20.33;9.68;;;;;;;;;;5108975;27;20043;-59
2023/10/24 01:12:18;;;;;;;18.05;8.15;;;;;;;;;;5091740;27;20032;-59
2023/10/24 01:14:44;;;;;;;16.13;8.88;;;;;;;;;;5108376;27;20539;-59
2023/10/24 01:17:12;;;;;;;13.75;7.45;;;;;;;;;;5102741;27;20051;-59
2023/10/24 01:19:38;;;;;;;14.23;7.53;;;;;;;;;;5083141;28;20044;-59
2023/10/24 01:22:05;;;;;;;10.18;7.03;;;;;;;;;;5108253;27;20028;-59
2023/10/24 01:24:31;;;;;;;12.60;6.40;;;;;;;;;;5111318;27;20043;-59
2023/10/24 01:26:57;;;;;;;11.63;6.68;;;;;;;;;;5110804;27;20039;-59
2023/10/24 01:29:24;;;;;;;10.05;5.93;;;;;;;;;;5097478;27;20039;-59
2023/10/24 01:31:50;;;;;;;10.90;6.10;;;;;;;;;;5111557;27;20035;-59
2023/10/24 01:34:17;;;;;;;10.57;5.65;;;;;;;;;;5093901;27;20679;-59
2023/10/24 01:36:44;;;;;;;9.63;5.50;;;;;;;;;;5106179;27;20410;-58
2023/10/24 01:39:11;;;;;;;9.93;5.97;;;;;;;;;;5109394;27;20040;-59
2023/10/24 01:41:37;;;;;;;8.88;5.68;;;;;;;;;;5089074;28;20036;-59
2023/10/24 01:44:03;;;;;;;9.82;5.03;;;;;;;;;;5073041;28;20157;-58
2023/10/24 01:46:31;;;;;;;10.52;5.65;;;;;;;;;;5092154;27;20050;-58
2023/10/24 01:48:57;;;;;;;7.97;5.05;;;;;;;;;;5105994;27;20032;-58
2023/10/24 01:51:23;;;;;;;7.93;5.15;;;;;;;;;;5111483;27;20039;-58
2023/10/24 01:53:49;;;;;;;8.60;4.60;;;;;;;;;;5110332;27;20043;-58
2023/10/24 01:56:16;;;;;;;9.90;5.00;;;;;;;;;;5113381;27;20035;-58
2023/10/24 01:58:42;;;;;;;10.20;5.15;;;;;;;;;;5094902;27;20031;-58
2023/10/24 02:01:08;;;;;;;7.05;5.32;;;;;;;;;;5115197;27;20042;-58
2023/10/24 02:03:34;;;;;;;9.52;5.47;;;;;;;;;;5112373;27;20038;-58
2023/10/24 02:06:01;;;;;;;6.93;4.45;;;;;;;;;;5110902;27;20039;-58
2023/10/24 02:08:27;;;;;;;8.88;5.13;;;;;;;;;;5110575;27;20038;-58
2023/10/24 02:10:54;;;;;;;7.93;5.78;;;;;;;;;;5109010;27;20067;-58
2023/10/24 02:13:20;;;;;;;7.32;4.80;;;;;;;;;;5106609;27;20396;-59
2023/10/24 02:15:47;;;;;;;7.57;4.80;;;;;;;;;;5069351;27;20031;-58
2023/10/24 02:18:13;;;;;;;5.40;4.00;;;;;;;;;;5100352;27;20066;-58
2023/10/24 02:20:39;;;;;;;6.43;4.15;;;;;;;;;;5100330;28;20387;-59
2023/10/24 02:23:05;;;;;;;6.85;4.00;;;;;;;;;;5106640;28;20031;-58
2023/10/24 02:25:36;;;;;;;5.32;3.78;;;;;;;;;;5113263;27;20422;-59
2023/10/24 02:28:04;;;;;;;9.93;3.63;;;;;;;;;;5092259;28;20510;-59
2023/10/24 02:30:30;;;;;;;3.92;3.08;;;;;;;;;;5088988;28;20055;-59
2023/10/24 02:33:00;;;;;;;4.07;3.03;;;;;;;;;;5110828;27;20055;-59
2023/10/24 02:35:27;;;;;;;4.70;2.70;;;;;;;;;;5113484;27;20019;-59
2023/10/24 02:37:53;;;;;;;5.78;3.03;;;;;;;;;;5104956;27;20426;-59
2023/10/24 02:40:20;;;;;;;4.90;3.00;;;;;;;;;;5090739;28;20040;-58
2023/10/24 02:42:47;;;;;;;7.10;2.75;;;;;;;;;;5108516;27;20398;-59
2023/10/24 02:45:13;;;;;;;8.95;3.28;;;;;;;;;;5107969;27;20046;-59
2023/10/24 02:47:39;;;;;;;6.72;3.22;;;;;;;;;;5110134;28;20038;-58
2023/10/24 02:50:06;;;;;;;4.80;3.67;;;;;;;;;;5103816;27;20043;-59
2023/10/24 02:52:32;;;;;;;7.07;3.90;;;;;;;;;;5111340;28;20034;-58
2023/10/24 02:54:58;;;;;;;5.70;3.95;;;;;;;;;;5111502;28;20028;-59
2023/10/24 02:57:24;;;;;;;5.88;3.40;;;;;;;;;;5112005;28;20402;-59
2023/10/24 02:59:51;;;;;;;6.35;3.17;;;;;;;;;;5110862;28;20458;-59
2023/10/24 03:02:17;;;;;;;4.93;3.05;;;;;;;;;;5110428;28;20028;-59
2023/10/24 03:04:43;;;;;;;5.75;4.00;;;;;;;;;;5110111;28;20041;-58
2023/10/24 03:07:09;;;;;;;7.90;5.03;;;;;;;;;;5107963;28;20059;-58
2023/10/24 03:09:36;;;;;;;7.70;5.30;;;;;;;;;;5104051;28;20048;-57
2023/10/24 03:12:05;;;;;;;7.60;5.22;;;;;;;;;;5088196;28;20058;-58
2023/10/24 03:14:31;;;;;;;8.35;5.38;;;;;;;;;;5081989;28;20038;-58
2023/10/24 03:16:57;;;;;;;9.27;5.68;;;;;;;;;;5102222;28;20425;-58
2023/10/24 03:19:24;;;;;;;9.38;5.00;;;;;;;;;;5105956;28;20052;-58
2023/10/24 03:21:51;;;;;;;8.80;5.57;;;;;;;;;;5095708;28;20068;-59
2023/10/24 03:24:17;;;;;;;9.55;6.00;;;;;;;;;;5113756;28;20455;-58
2023/10/24 03:26:43;;;;;;;9.90;5.50;;;;;;;;;;5110923;28;20027;-58
2023/10/24 03:29:10;;;;;;;9.60;5.80;;;;;;;;;;5105790;28;20407;-58
2023/10/24 03:31:36;;;;;;;8.43;5.93;;;;;;;;;;5110814;28;20042;-58
2023/10/24 03:34:04;;;;;;;7.43;5.18;;;;;;;;;;5107952;28;20422;-59
2023/10/24 03:36:30;;;;;;;9.88;6.05;;;;;;;;;;5093968;28;20036;-58
2023/10/24 03:38:56;;;;;;;10.07;6.03;;;;;;;;;;5107887;28;20051;-58
2023/10/24 03:41:22;;;;;;;12.07;7.32;;;;;;;;;;5110781;28;20498;-58
2023/10/24 03:43:48;;;;;;;17.52;11.30;;;;;;;;;;5112326;28;20027;-59
2023/10/24 03:46:14;;;;;;;20.52;13.30;;;;;;;;;;5108895;28;20035;-59
2023/10/24 03:48:41;;;;;;;18.10;11.35;;;;;;;;;;5089117;28;20039;-59
2023/10/24 03:51:08;;;;;;;10.43;7.95;;;;;;;;;;5109992;28;20435;-58
2023/10/24 03:53:34;;;;;;;8.35;6.20;;;;;;;;;;5114205;28;20039;-58
2023/10/24 03:56:00;;;;;;;6.90;4.70;;;;;;;;;;5112796;28;20038;-58
2023/10/24 03:58:27;;;;;;;6.53;3.95;;;;;;;;;;5110035;27;20654;-58
2023/10/24 04:00:54;;;;;;;8.38;3.20;;;;;;;;;;5108329;27;20040;-58
2023/10/24 04:03:20;;;;;;;6.47;3.17;;;;;;;;;;5110654;27;20039;-58
2023/10/24 04:05:47;;;;;;;5.95;3.03;;;;;;;;;;5111115;27;20043;-58
2023/10/24 04:08:13;;;;;;;5.75;3.47;;;;;;;;;;5090016;27;20042;-59
2023/10/24 04:10:39;;;;;;;4.72;3.10;;;;;;;;;;5109998;27;20040;-58
2023/10/24 04:13:05;;;;;;;4.03;2.92;;;;;;;;;;5103250;27;20036;-58
2023/10/24 04:15:31;;;;;;;4.63;2.47;;;;;;;;;;5110802;27;20513;-58
2023/10/24 04:17:57;;;;;;;4.55;2.35;;;;;;;;;;5106675;27;20517;-58
2023/10/24 04:20:23;;;;;;;4.43;2.17;;;;;;;;;;5120142;27;20035;-58
2023/10/24 04:22:50;;;;;;;5.05;2.28;;;;;;;;;;5113443;27;20043;-58
2023/10/24 04:25:16;;;;;;;6.00;1.90;;;;;;;;;;5117329;27;20032;-60
2023/10/24 04:27:42;;;;;;;4.32;2.40;;;;;;;;;;5115489;27;20035;-59
2023/10/24 04:30:09;;;;;;;5.32;2.22;;;;;;;;;;5110860;27;20406;-58
2023/10/24 04:32:36;;;;;;;3.83;1.88;;;;;;;;;;5113939;27;20047;-58
2023/10/24 04:35:02;;;;;;;3.88;2.45;;;;;;;;;;5114546;27;20071;-59
2023/10/24 04:37:28;;;;;;;4.60;1.80;;;;;;;;;;5109813;27;20047;-58
2023/10/24 04:39:54;;;;;;;6.95;2.30;;;;;;;;;;5110145;27;20046;-59
2023/10/24 04:42:21;;;;;;;2.55;1.83;;;;;;;;;;5119143;27;20039;-58
2023/10/24 04:44:47;;;;;;;5.63;1.90;;;;;;;;;;5115567;27;20030;-58
2023/10/24 04:47:13;;;;;;;4.07;1.70;;;;;;;;;;5111489;27;20395;-58
2023/10/24 04:49:39;;;;;;;3.75;1.92;;;;;;;;;;5116637;27;20023;-59
2023/10/24 04:52:06;;;;;;;5.20;1.67;;;;;;;;;;5115119;27;20047;-59
2023/10/24 04:54:33;;;;;;;6.93;4.22;;;;;;;;;;5117405;27;20422;-58
2023/10/24 04:57:00;;;;;;;7.75;3.47;;;;;;;;;;5094931;28;20055;-59
2023/10/24 04:59:27;;;;;;;6.95;3.65;;;;;;;;;;5107591;27;20614;-59
2023/10/24 05:01:53;;;;;;;11.07;5.55;;;;;;;;;;5109217;27;20043;-58
2023/10/24 05:04:19;;;;;;;11.13;6.75;;;;;;;;;;5092366;27;20035;-58
2023/10/24 05:06:45;;;;;;;11.00;7.38;;;;;;;;;;5088332;28;20414;-58
2023/10/24 05:09:13;;;;;;;12.80;8.55;;;;;;;;;;5109535;27;20023;-58
2023/10/24 05:11:40;;;;;;;12.77;7.60;;;;;;;;;;5105041;27;20399;-57
2023/10/24 05:14:06;;;;;;;10.15;7.00;;;;;;;;;;5107525;27;20510;-58
2023/10/24 05:16:32;;;;;;;11.20;7.45;;;;;;;;;;5110537;27;20050;-58
2023/10/24 05:18:58;;;;;;;13.45;7.55;;;;;;;;;;5097429;28;20075;-57
2023/10/24 05:21:24;;;;;;;15.15;7.00;;;;;;;;;;5109924;27;20586;-58
2023/10/24 05:23:51;;;;;;;14.65;6.40;;;;;;;;;;5106741;27;20418;-58
2023/10/24 05:26:17;;;;;;;8.85;5.53;;;;;;;;;;5113422;27;20446;-59
2023/10/24 05:28:43;;;;;;;11.57;6.18;;;;;;;;;;5112871;27;20035;-58
2023/10/24 05:31:09;;;;;;;8.02;4.70;;;;;;;;;;5107480;27;20066;-59
2023/10/24 05:33:36;;;;;;;7.35;4.05;;;;;;;;;;5103196;27;20051;-58
2023/10/24 05:36:03;;;;;;;5.13;3.25;;;;;;;;;;5106154;27;20398;-58
2023/10/24 05:38:29;;;;;;;5.30;3.17;;;;;;;;;;5114096;27;20500;-57
2023/10/24 05:40:55;;;;;;;6.63;2.60;;;;;;;;;;5108085;27;20071;-57
2023/10/24 05:43:21;;;;;;;6.07;2.25;;;;;;;;;;5113398;27;20483;-58
2023/10/24 05:45:47;;;;;;;4.28;2.13;;;;;;;;;;5114853;27;20042;-57
2023/10/24 05:48:13;;;;;;;4.13;2.50;;;;;;;;;;5112315;27;20047;-58
2023/10/24 05:50:39;;;;;;;5.57;2.20;;;;;;;;;;5117231;27;20042;-58
2023/10/24 05:53:05;;;;;;;4.82;2.28;;;;;;;;;;5107589;27;20036;-58
2023/10/24 05:55:34;;;;;;;7.30;2.65;;;;;;;;;;5114890;27;20031;-58
2023/10/24 05:58:01;;;;;;;4.13;2.70;;;;;;;;;;5088774;28;20035;-58
2023/10/24 06:00:27;;;;;;;6.03;2.70;;;;;;;;;;5109533;27;20042;-58
2023/10/24 06:02:53;;;;;;;10.35;2.55;;;;;;;;;;5106377;27;20032;-59
2023/10/24 06:05:19;;;;;;;5.10;2.22;;;;;;;;;;5088565;27;20043;-59
2023/10/24 06:07:45;;;;;;;8.23;2.60;;;;;;;;;;5107915;27;20054;-58
2023/10/24 06:10:12;;;;;;;7.38;2.60;;;;;;;;;;5105773;27;20376;-59
2023/10/24 06:12:38;;;;;;;6.60;3.10;;;;;;;;;;5106344;27;20036;-59
2023/10/24 06:15:05;;;;;;;6.25;3.30;;;;;;;;;;5110734;27;20038;-58
2023/10/24 06:17:31;;;;;;;5.40;3.20;;;;;;;;;;5094731;27;20303;-59
2023/10/24 06:19:57;;;;;;;7.65;3.50;;;;;;;;;;5096958;28;20038;-59
2023/10/24 06:22:23;;;;;;;6.60;3.50;;;;;;;;;;5113633;27;20044;-59
2023/10/24 06:24:49;;;;;;;7.20;3.97;;;;;;;;;;5113045;27;20039;-57
2023/10/24 06:27:16;;;;;;;9.10;3.72;;;;;;;;;;5110862;27;20035;-58
2023/10/24 06:29:42;;;;;;;8.73;3.90;;;;;;;;;;5111181;27;20487;-58
2023/10/24 06:32:08;;;;;;;5.90;3.50;;;;;;;;;;5109420;27;20040;-59
2023/10/24 06:34:34;;;;;;;9.88;3.30;;;;;;;;;;5090599;28;20389;-58
2023/10/24 06:37:01;;;;;;;6.63;3.03;;;;;;;;;;5111494;27;20023;-58
2023/10/24 06:39:27;;;;;;;4.20;2.97;;;;;;;;;;5105292;27;20050;-59
2023/10/24 06:41:54;;;;;;;8.18;3.55;;;;;;;;;;5088563;28;20047;-57
2023/10/24 06:44:22;;;;;;;5.38;3.60;;;;;;;;;;5115631;27;20031;-58
2023/10/24 06:46:49;;;;;;;6.35;3.58;;;;;;;;;;5111234;27;20032;-58
2023/10/24 06:49:16;;;;;;;7.88;3.97;;;;;;;;;;5115647;27;20039;-58
2023/10/24 06:51:42;;;;;;;7.95;3.70;;;;;;;;;;5106723;27;20051;-58
2023/10/24 06:54:08;;;;;;;7.97;4.50;;;;;;;;;;5108367;27;20031;-58
2023/10/24 06:56:35;;;;;;;5.60;3.78;;;;;;;;;;5088536;28;20039;-58
2023/10/24 06:59:01;;;;;;;12.43;4.20;;;;;;;;;;5111581;28;20035;-58
2023/10/24 07:01:27;;;;;;;8.63;4.82;;;;;;;;;;5112518;28;20401;-58
2023/10/24 07:03:54;;;;;;;5.70;3.38;;;;;;;;;;5102356;28;20722;-57
2023/10/24 07:06:20;;;;;;;7.85;3.90;;;;;;;;;;5103520;28;20495;-58
2023/10/24 07:08:48;;;;;;;7.25;3.50;;;;;;;;;;5105978;28;20055;-58
2023/10/24 07:11:14;;;;;;;6.70;3.50;;;;;;;;;;5106094;28;20043;-58
2023/10/24 07:13:41;;;;;;;7.88;3.50;;;;;;;;;;5109170;28;20422;-58
2023/10/24 07:16:14;;;;;;;11.35;4.18;;;;;;;;;;5115198;28;20028;-58
2023/10/24 07:18:41;;;;;;;8.65;5.22;;;;;;;;;;5112392;28;20027;-58
2023/10/24 07:21:07;;;;;;;8.88;5.97;;;;;;;;;;5113339;28;20050;-58
2023/10/24 07:23:33;;;;;;;14.80;7.75;;;;;;;;;;5107974;28;20058;-58
2023/10/24 07:26:00;;;;;;;8.57;4.85;;;;;;;;;;5109454;28;20403;-57
2023/10/24 07:28:26;;;;;;;15.23;8.95;;;;;;;;;;5112643;28;20094;-57
2023/10/24 07:30:54;;;;;;;18.20;11.30;;;;;;;;;;5113938;28;20039;-58
2023/10/24 07:33:21;;;;;;;21.58;11.23;;;;;;;;;;5105283;28;20044;-58
2023/10/24 07:35:48;;;;;;;19.88;10.75;;;;;;;;;;5107931;27;20503;-58
2023/10/24 07:38:14;;;;;;;14.35;9.18;;;;;;;;;;5112263;27;20046;-58
2023/10/24 07:40:40;;;;;;;13.48;9.32;;;;;;;;;;5116875;27;20031;-59
2023/10/24 07:43:07;;;;;;;12.43;7.85;;;;;;;;;;5114444;27;20677;-57
2023/10/24 07:45:33;;;;;;;8.50;6.78;;;;;;;;;;5122479;27;20395;-57
2023/10/24 07:48:00;;;;;;;8.30;5.20;;;;;;;;;;5111602;27;20055;-58
2023/10/24 07:50:28;;;;;;;9.00;5.57;;;;;;;;;;5113581;27;20035;-57
2023/10/24 07:52:54;;;;;;;10.85;6.20;;;;;;;;;;5088024;28;20491;-57
2023/10/24 07:55:20;;;;;;;8.00;5.80;;;;;;;;;;5115991;27;20028;-58
2023/10/24 07:57:48;;;;;;;7.00;5.78;;;;;;;;;;5114303;27;20410;-58
2023/10/24 08:00:15;;;;;;;8.00;6.32;;;;;;;;;;5114382;27;20036;-58
2023/10/24 08:02:41;;;;;;;14.32;6.68;;;;;;;;;;5107317;27;20044;-58
2023/10/24 08:05:07;;;;;;;10.60;6.78;;;;;;;;;;5091890;28;20031;-58
2023/10/24 08:07:33;;;;;;;9.85;7.35;;;;;;;;;;5097885;27;20035;-57
2023/10/24 08:10:00;;;;;;;11.57;7.10;;;;;;;;;;5109848;27;20045;-57
2023/10/24 08:12:26;;;;;;;10.73;7.03;;;;;;;;;;5115112;27;21837;-58
2023/10/24 08:14:52;;;;;;;10.80;7.15;;;;;;;;;;5117224;27;20028;-58
2023/10/24 08:17:18;;;;;;;11.27;6.72;;;;;;;;;;5114326;27;20035;-57
2023/10/24 08:19:45;;;;;;;10.43;6.50;;;;;;;;;;5118205;27;20031;-57
2023/10/24 08:22:11;;;;;;;9.77;7.20;;;;;;;;;;5111734;27;20040;-58
2023/10/24 08:24:37;;;;;;;11.30;7.28;;;;;;;;;;5111811;27;20047;-58
2023/10/24 08:27:03;;;;;;;8.30;6.22;;;;;;;;;;5110495;27;20034;-58
2023/10/24 08:29:30;;;;;;;9.65;7.20;;;;;;;;;;5107805;27;20048;-58
2023/10/24 08:31:56;;;;;;;12.98;6.65;;;;;;;;;;5111908;27;20043;-58
2023/10/24 08:34:22;;;;;;;7.68;6.63;;;;;;;;;;5110976;27;20032;-57
2023/10/24 08:36:48;;;;;;;9.38;7.15;;;;;;;;;;5113273;27;20028;-58
2023/10/24 08:39:14;;;;;;;12.23;6.97;;;;;;;;;;5118146;27;20047;-58
2023/10/24 08:41:47;;;;;;;12.80;7.50;;;;;;;;;;5121854;27;20478;-59
2023/10/24 08:44:14;;;;;;;12.27;7.82;;;;;;;;;;5100014;27;20035;-58
2023/10/24 08:46:40;;;;;;;12.93;7.82;;;;;;;;;;5115926;27;20028;-59
2023/10/24 08:49:06;;;;;;;11.80;6.95;;;;;;;;;;5111346;27;20047;-59
2023/10/24 08:51:33;;;;;;;10.68;7.13;;;;;;;;;;5116025;27;20043;-59
2023/10/24 08:54:00;;;;;;;11.38;7.35;;;;;;;;;;5111685;27;20030;-59
2023/10/24 08:56:27;;;;;;;12.32;7.68;;;;;;;;;;5112342;27;20573;-59
2023/10/24 08:58:56;;;;;;;9.02;6.78;;;;;;;;;;5111832;27;20031;-59
2023/10/24 09:01:23;;;;;;;10.40;6.57;;;;;;;;;;5105905;27;20442;-59
2023/10/24 09:03:50;;;;;;;9.45;7.30;;;;;;;;;;5087728;28;20044;-59
2023/10/24 09:06:17;;;;;;;10.55;7.55;;;;;;;;;;5107131;27;20050;-59
2023/10/24 09:08:43;;;;;;;12.23;8.90;;;;;;;;;;5110716;27;20035;-58
2023/10/24 09:11:09;;;;;;;10.23;7.30;;;;;;;;;;5094696;28;20031;-58
2023/10/24 09:13:35;;;;;;;13.18;8.98;;;;;;;;;;5109831;27;20129;-58
2023/10/24 09:16:06;;;;;;;15.38;10.63;;;;;;;;;;5113497;27;20048;-58
2023/10/24 09:18:40;;;;;;;15.23;9.32;;;;;;;;;;5111381;27;20762;-58
2023/10/24 09:21:08;;;;;;;12.38;7.60;;;;;;;;;;5113682;27;20032;-58
2023/10/24 09:23:35;;;;;;;12.40;7.88;;;;;;;;;;5109274;27;20034;-59
2023/10/24 09:26:06;;;;;;;13.32;7.47;;;;;;;;;;5108817;27;20042;-58
2023/10/24 09:28:33;;;;;;;13.70;6.90;;;;;;;;;;5107858;27;20035;-59
2023/10/24 09:31:00;;;;;;;10.52;6.35;;;;;;;;;;5110467;27;20054;-57
2023/10/24 09:33:32;;;;;;;12.30;6.88;;;;;;;;;;5113276;27;20441;-58
2023/10/24 09:35:58;;;;;;;6.93;5.00;;;;;;;;;;5087452;28;20039;-58
2023/10/24 09:38:24;;;;;;;7.90;5.15;;;;;;;;;;5119184;27;20032;-58
2023/10/24 09:40:52;;;;;;;10.25;5.53;;;;;;;;;;5117349;27;20421;-58
2023/10/24 09:43:22;;;;;;;6.57;4.97;;;;;;;;;;5115139;27;20039;-58
2023/10/24 09:45:52;;;;;;;9.27;5.05;;;;;;;;;;5115885;27;20438;-58
2023/10/24 09:48:19;;;;;;;;;;;;;;;;;;5113945;27;20043;-59
2023/10/24 09:50:48;;;;;;;5.55;4.03;;;;;;;;;;5110214;27;19918;-58
2023/10/24 09:53:17;;;;;;;8.35;4.00;;;;;;;;;;5108854;27;20048;-58
2023/10/24 09:55:48;;;;;;;5.15;4.30;;;;;;;;;;5112133;27;20042;-58
2023/10/24 09:58:20;;;;;;;7.55;3.70;;;;;;;;;;5107570;27;20035;-58
2023/10/24 10:00:47;;;;;;;7.22;3.92;;;;;;;;;;5086462;28;20058;-58
2023/10/24 10:03:14;;;;;;;5.63;3.42;;;;;;;;;;5110879;27;20124;-58
2023/10/24 10:05:41;;;;;;;6.90;3.58;;;;;;;;;;5113477;27;20035;-58
2023/10/24 10:08:08;;;;;;;7.70;3.92;;;;;;;;;;5107868;27;20040;-58
2023/10/24 10:10:37;;;;;;;7.38;3.83;;;;;;;;;;5100473;27;20047;-58
2023/10/24 10:13:10;;;;;;;6.13;3.78;;;;;;;;;;5106865;27;20044;-59
2023/10/24 10:15:49;;;;;;;4.55;3.28;;;;;;;;;;5109622;27;20058;-58
2023/10/24 10:18:28;;;;;;;7.75;3.25;;;;;;;;;;5102398;27;20024;-59
2023/10/24 10:21:18;;;;;;;8.10;3.88;;;;;;;;;;5102910;27;20384;-58
2023/10/24 10:24:20;;;;;;;8.75;3.90;;;;;;;;;;5106528;27;20035;-58
2023/10/24 10:27:06;;;;;;;5.63;3.08;;;;;;;;;;5108387;27;20054;-58
2023/10/24 10:30:27;;;;;;;4.80;2.60;;;;;;;;;;5104796;27;20031;-58
2023/10/24 10:33:09;;;;;;;5.30;2.28;;;;;;;;;;5046673;28;20041;-59
2023/10/24 10:36:01;;;;;;;5.72;2.25;;;;;;;;;;5105146;27;20049;-58
2023/10/24 10:38:40;;;;;;;4.43;2.72;;;;;;;;;;5109086;27;20042;-58
2023/10/24 10:41:25;;;;;;;3.72;2.33;;;;;;;;;;5114369;27;20545;-58
2023/10/24 10:43:57;;;;;;;4.03;2.97;;;;;;;;;;5109426;27;20034;-58
2023/10/24 10:46:28;;;;;;;4.13;2.10;;;;;;;;;;5110041;27;20027;-58
2023/10/24 10:49:03;;;;;;;5.28;2.70;;;;;;;;;;5110662;28;20043;-57
2023/10/24 10:51:30;;;;;;;3.90;2.53;;;;;;;;;;5110168;28;20042;-58
2023/10/24 10:54:37;;;;;;;3.17;2.65;;;;;;;;;;5108156;27;20032;-58
2023/10/24 10:57:04;;;;;;;4.75;2.47;;;;;;;;;;5106123;28;20519;-58
2023/10/24 10:59:45;;;;;;;5.15;3.22;;;;;;;;;;5106186;28;20043;-58
2023/10/24 11:02:28;;;;;;;11.40;5.32;;;;;;;;;;5104301;28;20059;-59
2023/10/24 11:04:54;;;;;;;9.18;3.50;;;;;;;;;;5112292;28;20057;-58
2023/10/24 11:07:54;;;;;;;2.90;2.13;;;;;;;;;;5103681;28;20044;-58
2023/10/24 11:10:20;;;;;;;6.18;2.35;;;;;;;;;;5111545;28;20039;-59
2023/10/24 11:12:47;;;;;;;3.40;2.35;;;;;;;;;;5114857;27;20026;-59
2023/10/24 11:15:13;;;;;;;3.13;2.03;;;;;;;;;;5118436;27;20039;-59
2023/10/24 11:17:40;;;;;;;4.97;2.05;;;;;;;;;;5116917;27;20042;-59
2023/10/24 11:20:08;;;;;;;1.45;1.20;;;;;;;;;;5116783;27;20074;-59
2023/10/24 11:22:35;;;;;;;2.75;1.60;;;;;;;;;;5114918;27;20038;-59
2023/10/24 11:25:13;;;;;;;2.33;1.30;;;;;;;;;;5115214;27;20035;-59
2023/10/24 11:27:41;;;;;;;4.45;1.40;;;;;;;;;;5105379;27;20055;-59
2023/10/24 11:30:08;;;;;;;4.05;2.03;;;;;;;;;;5108012;27;20043;-59
2023/10/24 11:32:34;;;;;;;2.13;1.17;;;;;;;;;;5075225;28;20052;-59
2023/10/24 11:35:04;;;;;;;1.85;1.20;;;;;;;;;;5105051;27;20055;-59
2023/10/24 11:37:30;;;;;;;1.65;1.20;;;;;;;;;;5115218;27;20038;-59
2023/10/24 11:39:59;;;;;;;2.65;1.38;;;;;;;;;;5114951;27;20390;-59
2023/10/24 11:42:26;;;;;;;2.75;1.20;;;;;;;;;;5116946;27;20043;-59
2023/10/24 11:44:53;;;;;;;2.85;1.40;;;;;;;;;;5110620;27;20609;-59
2023/10/24 11:47:19;;;;;;;1.80;0.90;;;;;;;;;;5115552;27;20035;-59
2023/10/24 11:49:46;;;;;;;1.05;0.90;;;;;;;;;;5114683;27;20046;-59
2023/10/24 11:52:12;;;;;;;3.00;1.35;;;;;;;;;;5108732;27;20046;-59
2023/10/24 11:54:39;;;;;;;1.90;1.30;;;;;;;;;;5111583;27;20035;-59
2023/10/24 11:57:05;;;;;;;4.32;1.80;;;;;;;;;;5108556;27;20024;-59
2023/10/24 11:59:36;;;;;;;2.10;1.23;;;;;;;;;;5093508;27;20031;-59
2023/10/24 12:02:03;;;;;;;4.43;2.38;;;;;;;;;;5115303;27;20027;-59
2023/10/24 12:04:32;;;;;;;4.40;2.88;;;;;;;;;;5109806;27;20046;-59
2023/10/24 12:07:07;;;;;;;5.88;3.00;;;;;;;;;;5111891;27;20063;-59
2023/10/24 12:09:35;;;;;;;2.40;1.73;;;;;;;;;;5112312;27;20031;-59
2023/10/24 12:12:04;;;;;;;2.95;1.73;;;;;;;;;;5118367;27;20019;-59
2023/10/24 12:14:32;;;;;;;2.22;1.50;;;;;;;;;;5114257;27;20034;-59
2023/10/24 12:16:58;;;;;;;1.58;1.05;;;;;;;;;;5107792;27;20038;-59
2023/10/24 12:19:25;;;;;;;2.85;1.20;;;;;;;;;;5090079;27;20043;-58
2023/10/24 12:21:51;;;;;;;3.15;1.50;;;;;;;;;;5103338;27;20024;-60
2023/10/24 12:24:18;;;;;;;11.93;4.93;;;;;;;;;;5106508;28;20035;-59
2023/10/24 12:26:44;;;;;;;2.33;1.35;;;;;;;;;;5109492;28;20040;-59
2023/10/24 12:29:10;;;;;;;1.63;1.10;;;;;;;;;;5109004;27;20055;-58
2023/10/24 12:31:37;;;;;;;2.28;1.27;;;;;;;;;;5091496;28;20509;-57
2023/10/24 12:34:04;;;;;;;1.75;1.40;;;;;;;;;;5087529;28;20039;-58
2023/10/24 12:36:30;;;;;;;2.70;1.23;;;;;;;;;;5108672;27;20445;-59
2023/10/24 12:38:57;;;;;;;4.43;2.00;;;;;;;;;;5107591;28;20050;-58
2023/10/24 12:41:23;;;;;;;2.55;1.85;;;;;;;;;;5105871;28;20395;-58
2023/10/24 12:43:50;;;;;;;2.55;1.60;;;;;;;;;;5115680;27;20048;-58
2023/10/24 12:46:16;;;;;;;1.55;1.20;;;;;;;;;;5104739;27;20043;-58
2023/10/24 12:48:43;;;;;;;2.17;1.50;;;;;;;;;;5103065;28;20039;-58
2023/10/24 12:51:10;;;;;;;1.50;1.15;;;;;;;;;;5101289;28;20036;-59
2023/10/24 12:53:36;;;;;;;2.58;1.90;;;;;;;;;;5104028;28;20039;-58
2023/10/24 12:56:02;;;;;;;2.75;1.40;;;;;;;;;;5106841;28;20036;-58
2023/10/24 12:58:28;;;;;;;2.30;1.30;;;;;;;;;;5104739;28;20398;-59
2023/10/24 13:00:55;;;;;;;1.95;0.93;;;;;;;;;;5089682;28;20684;-58
2023/10/24 13:03:21;;;;;;;2.08;0.80;;;;;;;;;;5106607;27;20167;-58
2023/10/24 13:05:47;;;;;;;0.98;0.80;;;;;;;;;;5105850;28;20031;-58
2023/10/24 13:08:14;;;;;;;2.47;1.40;;;;;;;;;;5103421;27;20031;-58
2023/10/24 13:10:41;;;;;;;1.27;0.77;;;;;;;;;;5108978;28;20043;-58
2023/10/24 13:13:07;;;;;;;2.42;1.65;;;;;;;;;;5107340;28;20050;-58
2023/10/24 13:15:33;;;;;;;3.10;1.35;;;;;;;;;;5104603;28;20027;-58
2023/10/24 13:17:59;;;;;;;1.00;0.90;;;;;;;;;;5099515;28;20040;-58
2023/10/24 13:20:26;;;;;;;1.23;1.10;;;;;;;;;;5104383;28;20047;-58
2023/10/24 13:22:52;;;;;;;1.15;0.63;;;;;;;;;;5102899;28;20027;-58
2023/10/24 13:25:18;;;;;;;1.52;0.60;;;;;;;;;;5105516;28;20056;-58
2023/10/24 13:27:44;;;;;;;1.95;1.00;;;;;;;;;;5100647;28;20040;-58
2023/10/24 13:30:12;;;;;;;0.90;0.70;;;;;;;;;;5105427;28;20042;-58
2023/10/24 13:32:38;;;;;;;1.35;0.80;;;;;;;;;;5107441;28;20042;-58
2023/10/24 13:35:05;;;;;;;5.53;2.70;;;;;;;;;;5104652;28;20403;-57
2023/10/24 13:37:31;;;;;;;6.55;2.85;;;;;;;;;;5105708;28;20027;-58
2023/10/24 13:39:57;;;;;;;5.97;3.33;;;;;;;;;;5087175;28;20038;-58
2023/10/24 13:42:23;;;;;;;3.05;1.70;;;;;;;;;;5105470;28;20410;-58
2023/10/24 13:44:49;;;;;;;4.82;1.58;;;;;;;;;;5100558;28;20180;-58
2023/10/24 13:47:16;;;;;;;1.13;0.93;;;;;;;;;;5100846;28;20032;-59
2023/10/24 13:49:42;;;;;;;4.32;0.90;;;;;;;;;;5104774;28;20418;-59
2023/10/24 13:52:09;;;;;;;3.20;1.00;;;;;;;;;;5105126;28;20031;-57
2023/10/24 13:54:35;;;;;;;8.77;4.80;;;;;;;;;;5083977;28;20031;-58
2023/10/24 13:57:02;;;;;;;2.10;1.60;;;;;;;;;;5103735;28;20399;-58
2023/10/24 13:59:29;;;;;;;2.33;1.65;;;;;;;;;;5105628;28;20032;-58
2023/10/24 14:01:55;;;;;;;2.90;1.40;;;;;;;;;;5107325;27;20035;-58
2023/10/24 14:04:21;;;;;;;2.67;1.50;;;;;;;;;;5089853;27;20058;-58
2023/10/24 14:06:48;;;;;;;3.28;2.25;;;;;;;;;;5112043;27;20048;-58
2023/10/24 14:09:14;;;;;;;2.28;2.08;;;;;;;;;;5086653;28;20051;-58
2023/10/24 14:11:40;;;;;;;3.05;1.58;;;;;;;;;;5114989;27;20035;-58
2023/10/24 14:14:06;;;;;;;1.95;1.33;;;;;;;;;;5104795;27;20039;-59
2023/10/24 14:16:32;;;;;;;1.45;1.10;;;;;;;;;;5108090;27;20032;-59
2023/10/24 14:18:59;;;;;;;4.22;1.70;;;;;;;;;;5105251;28;20023;-58
2023/10/24 14:21:25;;;;;;;5.10;2.03;;;;;;;;;;5105792;28;20039;-58
2023/10/24 14:23:51;;;;;;;2.85;1.60;;;;;;;;;;5103664;28;20043;-58
2023/10/24 14:26:18;;;;;;;1.55;1.27;;;;;;;;;;5106769;28;20031;-59
2023/10/24 14:28:44;;;;;;;2.70;1.40;;;;;;;;;;5105638;28;20054;-59
2023/10/24 14:31:10;;;;;;;1.40;0.93;;;;;;;;;;5105850;28;20437;-58
2023/10/24 14:33:37;;;;;;;2.10;0.73;;;;;;;;;;5104403;28;20035;-59
2023/10/24 14:36:05;;;;;;;1.88;1.40;;;;;;;;;;5101445;28;20051;-58
2023/10/24 14:38:32;;;;;;;2.60;1.60;;;;;;;;;;5103624;28;20024;-58
2023/10/24 14:40:59;;;;;;;3.08;1.90;;;;;;;;;;5103152;28;20039;-58